sensor_id;sensor_type;location;lat;lon;timestamp;temperature;humidity
16578;DHT22;8401;52.528;13.340;2024-01-27T00:00:11;5.90;99.90
16578;DHT22;8401;52.528;13.340;2024-01-27T00:02:36;5.90;99.90
16578;DHT22;8401;52.528;13.340;2024-01-27T00:05:02;5.90;99.90
16578;DHT22;8401;52.528;13.340;2024-01-27T00:07:28;5.90;99.90
16578;DHT22;8401;52.528;13.340;2024-01-27T00:09:54;5.90;99.90
16578;DHT22;8401;52.528;13.340;2024-01-27T00:12:20;5.90;99.90
16578;DHT22;8401;52.528;13.340;2024-01-27T00:14:46;5.90;99.90
16578;DHT22;8401;52.528;13.340;2024-01-27T00:17:12;5.80;99.90
16578;DHT22;8401;52.528;13.340;2024-01-27T00:19:37;5.80;99.90
16578;DHT22;8401;52.528;13.340;2024-01-27T00:22:03;5.80;99.90
16578;DHT22;8401;52.528;13.340;2024-01-27T00:24:29;5.80;99.90
16578;DHT22;8401;52.528;13.340;2024-01-27T00:26:54;5.80;99.90
16578;DHT22;8401;52.528;13.340;2024-01-27T00:29:20;5.70;99.90
16578;DHT22;8401;52.528;13.340;2024-01-27T00:31:46;5.70;99.90
16578;DHT22;8401;52.528;13.340;2024-01-27T00:34:11;5.70;99.90
16578;DHT22;8401;52.528;13.340;2024-01-27T00:36:37;5.70;99.90
16578;DHT22;8401;52.528;13.340;2024-01-27T00:39:04;5.70;99.90
16578;DHT22;8401;52.528;13.340;2024-01-27T00:41:30;5.70;99.90
16578;DHT22;8401;52.528;13.340;2024-01-27T00:43:55;5.70;99.90
16578;DHT22;8401;52.528;13.340;2024-01-27T00:46:21;5.70;99.90
16578;DHT22;8401;52.528;13.340;2024-01-27T00:48:47;5.70;99.90
16578;DHT22;8401;52.528;13.340;2024-01-27T00:51:13;5.70;99.90
16578;DHT22;8401;52.528;13.340;2024-01-27T00:53:39;5.70;99.90
16578;DHT22;8401;52.528;13.340;2024-01-27T00:56:05;5.70;99.90
16578;DHT22;8401;52.528;13.340;2024-01-27T00:58:30;5.70;99.90
16578;DHT22;8401;52.528;13.340;2024-01-27T01:00:57;5.70;99.90
16578;DHT22;8401;52.528;13.340;2024-01-27T01:03:23;5.70;99.90
16578;DHT22;8401;52.528;13.340;2024-01-27T01:05:49;5.70;99.90
16578;DHT22;8401;52.528;13.340;2024-01-27T01:08:15;5.70;99.90
16578;DHT22;8401;52.528;13.340;2024-01-27T01:10:40;5.70;99.90
16578;DHT22;8401;52.528;13.340;2024-01-27T01:13:06;5.70;99.90
16578;DHT22;8401;52.528;13.340;2024-01-27T01:15:31;5.70;99.90
16578;DHT22;8401;52.528;13.340;2024-01-27T01:17:57;5.70;99.90
16578;DHT22;8401;52.528;13.340;2024-01-27T01:20:23;5.70;99.90
16578;DHT22;8401;52.528;13.340;2024-01-27T01:22:51;5.70;99.90
16578;DHT22;8401;52.528;13.340;2024-01-27T01:25:17;5.70;99.90
16578;DHT22;8401;52.528;13.340;2024-01-27T01:27:42;5.70;99.90
16578;DHT22;8401;52.528;13.340;2024-01-27T01:30:08;5.60;99.90
16578;DHT22;8401;52.528;13.340;2024-01-27T01:32:35;5.60;99.90
16578;DHT22;8401;52.528;13.340;2024-01-27T01:35:00;5.60;99.90
16578;DHT22;8401;52.528;13.340;2024-01-27T01:37:26;5.60;99.90
16578;DHT22;8401;52.528;13.340;2024-01-27T01:39:52;5.60;99.90
16578;DHT22;8401;52.528;13.340;2024-01-27T01:42:17;5.60;99.90
16578;DHT22;8401;52.528;13.340;2024-01-27T01:44:43;5.60;99.90
16578;DHT22;8401;52.528;13.340;2024-01-27T01:47:09;5.60;99.90
16578;DHT22;8401;52.528;13.340;2024-01-27T01:49:36;5.60;99.90
16578;DHT22;8401;52.528;13.340;2024-01-27T01:52:03;5.60;99.90
16578;DHT22;8401;52.528;13.340;2024-01-27T01:54:28;5.60;99.90
16578;DHT22;8401;52.528;13.340;2024-01-27T01:56:56;5.60;99.90
16578;DHT22;8401;52.528;13.340;2024-01-27T01:59:23;5.60;99.90
16578;DHT22;8401;52.528;13.340;2024-01-27T02:01:48;5.60;99.90
16578;DHT22;8401;52.528;13.340;2024-01-27T02:04:14;5.50;99.90
16578;DHT22;8401;52.528;13.340;2024-01-27T02:06:40;5.60;99.90
16578;DHT22;8401;52.528;13.340;2024-01-27T02:09:05;5.60;99.90
16578;DHT22;8401;52.528;13.340;2024-01-27T02:11:31;5.60;99.90
16578;DHT22;8401;52.528;13.340;2024-01-27T02:13:56;5.60;99.90
16578;DHT22;8401;52.528;13.340;2024-01-27T02:16:22;5.50;99.90
16578;DHT22;8401;52.528;13.340;2024-01-27T02:18:48;5.50;99.90
16578;DHT22;8401;52.528;13.340;2024-01-27T02:21:13;5.50;99.90
16578;DHT22;8401;52.528;13.340;2024-01-27T02:23:39;5.50;99.90
16578;DHT22;8401;52.528;13.340;2024-01-27T02:26:05;5.50;99.90
16578;DHT22;8401;52.528;13.340;2024-01-27T02:28:30;5.50;99.90
16578;DHT22;8401;52.528;13.340;2024-01-27T02:30:58;5.60;99.90
16578;DHT22;8401;52.528;13.340;2024-01-27T02:33:25;5.60;99.90
16578;DHT22;8401;52.528;13.340;2024-01-27T02:35:51;5.60;99.90
16578;DHT22;8401;52.528;13.340;2024-01-27T02:38:17;5.60;99.90
16578;DHT22;8401;52.528;13.340;2024-01-27T02:40:42;5.60;99.90
16578;DHT22;8401;52.528;13.340;2024-01-27T02:43:08;5.60;99.90
16578;DHT22;8401;52.528;13.340;2024-01-27T02:45:33;5.60;99.90
16578;DHT22;8401;52.528;13.340;2024-01-27T02:47:59;5.60;99.90
16578;DHT22;8401;52.528;13.340;2024-01-27T02:50:25;5.60;99.90
16578;DHT22;8401;52.528;13.340;2024-01-27T02:52:50;5.60;99.90
16578;DHT22;8401;52.528;13.340;2024-01-27T02:55:16;5.60;99.90
16578;DHT22;8401;52.528;13.340;2024-01-27T02:57:42;5.60;99.90
16578;DHT22;8401;52.528;13.340;2024-01-27T03:00:08;5.50;99.90
16578;DHT22;8401;52.528;13.340;2024-01-27T03:02:34;5.50;99.90
16578;DHT22;8401;52.528;13.340;2024-01-27T03:05:00;5.50;99.90
16578;DHT22;8401;52.528;13.340;2024-01-27T03:07:26;5.50;99.90
16578;DHT22;8401;52.528;13.340;2024-01-27T03:09:51;5.40;99.90
16578;DHT22;8401;52.528;13.340;2024-01-27T03:12:17;5.50;99.90
16578;DHT22;8401;52.528;13.340;2024-01-27T03:14:43;5.40;99.90
16578;DHT22;8401;52.528;13.340;2024-01-27T03:17:10;5.30;99.90
16578;DHT22;8401;52.528;13.340;2024-01-27T03:19:35;5.30;99.90
16578;DHT22;8401;52.528;13.340;2024-01-27T03:22:01;5.20;99.90
16578;DHT22;8401;52.528;13.340;2024-01-27T03:24:27;5.20;99.90
16578;DHT22;8401;52.528;13.340;2024-01-27T03:26:52;5.20;99.90
16578;DHT22;8401;52.528;13.340;2024-01-27T03:29:18;5.10;99.90
16578;DHT22;8401;52.528;13.340;2024-01-27T03:31:44;5.00;99.90
16578;DHT22;8401;52.528;13.340;2024-01-27T03:34:09;5.00;99.90
16578;DHT22;8401;52.528;13.340;2024-01-27T03:36:35;5.00;99.90
16578;DHT22;8401;52.528;13.340;2024-01-27T03:39:01;4.90;99.90
16578;DHT22;8401;52.528;13.340;2024-01-27T03:41:26;4.90;99.90
16578;DHT22;8401;52.528;13.340;2024-01-27T03:43:52;4.90;99.90
16578;DHT22;8401;52.528;13.340;2024-01-27T03:46:18;4.90;99.90
16578;DHT22;8401;52.528;13.340;2024-01-27T03:48:43;4.90;99.90
16578;DHT22;8401;52.528;13.340;2024-01-27T03:51:09;4.80;99.90
16578;DHT22;8401;52.528;13.340;2024-01-27T03:53:34;4.80;99.90
16578;DHT22;8401;52.528;13.340;2024-01-27T03:56:01;4.90;99.90
16578;DHT22;8401;52.528;13.340;2024-01-27T03:58:33;4.80;99.90
16578;DHT22;8401;52.528;13.340;2024-01-27T04:00:59;4.80;99.90
16578;DHT22;8401;52.528;13.340;2024-01-27T04:03:24;4.70;99.90
16578;DHT22;8401;52.528;13.340;2024-01-27T04:05:50;4.70;99.90
16578;DHT22;8401;52.528;13.340;2024-01-27T04:08:16;4.70;99.90
16578;DHT22;8401;52.528;13.340;2024-01-27T04:10:41;4.70;99.90
16578;DHT22;8401;52.528;13.340;2024-01-27T04:13:07;4.70;99.90
16578;DHT22;8401;52.528;13.340;2024-01-27T04:15:33;4.70;99.90
16578;DHT22;8401;52.528;13.340;2024-01-27T04:18:04;4.80;99.90
16578;DHT22;8401;52.528;13.340;2024-01-27T04:20:30;4.70;99.90
16578;DHT22;8401;52.528;13.340;2024-01-27T04:22:56;4.70;99.90
16578;DHT22;8401;52.528;13.340;2024-01-27T04:25:22;4.70;99.90
16578;DHT22;8401;52.528;13.340;2024-01-27T04:27:47;4.70;99.90
16578;DHT22;8401;52.528;13.340;2024-01-27T04:30:13;4.70;99.90
16578;DHT22;8401;52.528;13.340;2024-01-27T04:32:39;4.70;99.90
16578;DHT22;8401;52.528;13.340;2024-01-27T04:35:08;4.70;99.90
16578;DHT22;8401;52.528;13.340;2024-01-27T04:37:34;4.70;99.90
16578;DHT22;8401;52.528;13.340;2024-01-27T04:39:59;4.70;99.90
16578;DHT22;8401;52.528;13.340;2024-01-27T04:42:25;4.70;99.90
16578;DHT22;8401;52.528;13.340;2024-01-27T04:44:50;4.70;99.90
16578;DHT22;8401;52.528;13.340;2024-01-27T04:47:16;4.70;99.90
16578;DHT22;8401;52.528;13.340;2024-01-27T04:49:42;4.70;99.90
16578;DHT22;8401;52.528;13.340;2024-01-27T04:52:08;4.80;99.90
16578;DHT22;8401;52.528;13.340;2024-01-27T04:54:33;4.80;99.90
16578;DHT22;8401;52.528;13.340;2024-01-27T04:56:59;4.80;99.90
16578;DHT22;8401;52.528;13.340;2024-01-27T04:59:24;4.90;99.90
16578;DHT22;8401;52.528;13.340;2024-01-27T05:01:50;4.90;99.90
16578;DHT22;8401;52.528;13.340;2024-01-27T05:04:16;4.90;99.90
16578;DHT22;8401;52.528;13.340;2024-01-27T05:06:45;4.90;99.90
16578;DHT22;8401;52.528;13.340;2024-01-27T05:09:11;4.90;99.90
16578;DHT22;8401;52.528;13.340;2024-01-27T05:11:37;5.00;99.90
16578;DHT22;8401;52.528;13.340;2024-01-27T05:14:03;5.00;99.90
16578;DHT22;8401;52.528;13.340;2024-01-27T05:16:29;5.00;99.90
16578;DHT22;8401;52.528;13.340;2024-01-27T05:18:55;5.00;99.90
16578;DHT22;8401;52.528;13.340;2024-01-27T05:21:24;4.90;99.90
16578;DHT22;8401;52.528;13.340;2024-01-27T05:23:49;5.00;99.90
16578;DHT22;8401;52.528;13.340;2024-01-27T05:26:15;5.00;99.90
16578;DHT22;8401;52.528;13.340;2024-01-27T05:28:40;5.00;99.90
16578;DHT22;8401;52.528;13.340;2024-01-27T05:31:09;5.00;99.90
16578;DHT22;8401;52.528;13.340;2024-01-27T05:33:35;5.00;99.90
16578;DHT22;8401;52.528;13.340;2024-01-27T05:36:02;5.00;99.90
16578;DHT22;8401;52.528;13.340;2024-01-27T05:38:27;5.00;99.90
16578;DHT22;8401;52.528;13.340;2024-01-27T05:40:55;5.00;99.90
16578;DHT22;8401;52.528;13.340;2024-01-27T05:43:21;5.10;99.90
16578;DHT22;8401;52.528;13.340;2024-01-27T05:45:48;5.10;99.90
16578;DHT22;8401;52.528;13.340;2024-01-27T05:48:14;5.10;99.90
16578;DHT22;8401;52.528;13.340;2024-01-27T05:50:42;5.10;99.90
16578;DHT22;8401;52.528;13.340;2024-01-27T05:53:08;5.10;99.90
16578;DHT22;8401;52.528;13.340;2024-01-27T05:55:33;5.10;99.90
16578;DHT22;8401;52.528;13.340;2024-01-27T05:57:59;5.10;99.90
16578;DHT22;8401;52.528;13.340;2024-01-27T06:00:25;5.20;99.90
16578;DHT22;8401;52.528;13.340;2024-01-27T06:02:50;5.20;99.90
16578;DHT22;8401;52.528;13.340;2024-01-27T06:05:16;5.20;99.90
16578;DHT22;8401;52.528;13.340;2024-01-27T06:07:42;5.20;99.90
16578;DHT22;8401;52.528;13.340;2024-01-27T06:10:11;5.30;99.90
16578;DHT22;8401;52.528;13.340;2024-01-27T06:12:37;5.30;99.90
16578;DHT22;8401;52.528;13.340;2024-01-27T06:15:04;5.30;99.90
16578;DHT22;8401;52.528;13.340;2024-01-27T06:17:29;5.30;99.90
16578;DHT22;8401;52.528;13.340;2024-01-27T06:19:55;5.40;99.90
16578;DHT22;8401;52.528;13.340;2024-01-27T06:22:21;5.40;99.90
16578;DHT22;8401;52.528;13.340;2024-01-27T06:24:46;5.30;99.90
16578;DHT22;8401;52.528;13.340;2024-01-27T06:27:12;5.40;99.90
16578;DHT22;8401;52.528;13.340;2024-01-27T06:29:37;5.40;99.90
16578;DHT22;8401;52.528;13.340;2024-01-27T06:32:04;5.40;99.90
16578;DHT22;8401;52.528;13.340;2024-01-27T06:34:31;5.40;99.90
16578;DHT22;8401;52.528;13.340;2024-01-27T06:36:57;5.40;99.90
16578;DHT22;8401;52.528;13.340;2024-01-27T06:39:22;5.30;99.90
16578;DHT22;8401;52.528;13.340;2024-01-27T06:41:48;5.40;99.90
16578;DHT22;8401;52.528;13.340;2024-01-27T06:44:14;5.30;99.90
16578;DHT22;8401;52.528;13.340;2024-01-27T06:46:39;5.30;99.90
16578;DHT22;8401;52.528;13.340;2024-01-27T06:49:05;5.30;99.90
16578;DHT22;8401;52.528;13.340;2024-01-27T06:51:31;5.30;99.90
16578;DHT22;8401;52.528;13.340;2024-01-27T06:53:56;5.30;99.90
16578;DHT22;8401;52.528;13.340;2024-01-27T06:56:22;5.30;99.90
16578;DHT22;8401;52.528;13.340;2024-01-27T06:58:47;5.30;99.90
16578;DHT22;8401;52.528;13.340;2024-01-27T07:01:13;5.40;99.90
16578;DHT22;8401;52.528;13.340;2024-01-27T07:03:38;5.30;99.90
16578;DHT22;8401;52.528;13.340;2024-01-27T07:06:05;5.30;99.90
16578;DHT22;8401;52.528;13.340;2024-01-27T07:08:31;5.40;99.90
16578;DHT22;8401;52.528;13.340;2024-01-27T07:10:58;5.40;99.90
16578;DHT22;8401;52.528;13.340;2024-01-27T07:13:23;5.40;99.90
16578;DHT22;8401;52.528;13.340;2024-01-27T07:15:49;5.40;99.90
16578;DHT22;8401;52.528;13.340;2024-01-27T07:18:14;5.40;99.90
16578;DHT22;8401;52.528;13.340;2024-01-27T07:20:40;5.40;99.90
16578;DHT22;8401;52.528;13.340;2024-01-27T07:23:06;5.40;99.90
16578;DHT22;8401;52.528;13.340;2024-01-27T07:25:32;5.40;99.90
16578;DHT22;8401;52.528;13.340;2024-01-27T07:27:57;5.50;99.90
16578;DHT22;8401;52.528;13.340;2024-01-27T07:30:23;5.40;99.90
16578;DHT22;8401;52.528;13.340;2024-01-27T07:32:48;5.50;99.90
16578;DHT22;8401;52.528;13.340;2024-01-27T07:35:14;5.50;99.90
16578;DHT22;8401;52.528;13.340;2024-01-27T07:37:40;5.50;99.90
16578;DHT22;8401;52.528;13.340;2024-01-27T07:40:06;5.50;99.90
16578;DHT22;8401;52.528;13.340;2024-01-27T07:42:31;5.50;99.90
16578;DHT22;8401;52.528;13.340;2024-01-27T07:44:57;5.60;99.90
16578;DHT22;8401;52.528;13.340;2024-01-27T07:47:23;5.60;99.90
16578;DHT22;8401;52.528;13.340;2024-01-27T07:49:48;5.60;99.90
16578;DHT22;8401;52.528;13.340;2024-01-27T07:52:14;5.70;99.90
16578;DHT22;8401;52.528;13.340;2024-01-27T07:54:40;5.70;99.90
16578;DHT22;8401;52.528;13.340;2024-01-27T07:57:06;5.70;99.90
16578;DHT22;8401;52.528;13.340;2024-01-27T07:59:32;5.70;99.90
16578;DHT22;8401;52.528;13.340;2024-01-27T08:01:59;5.70;99.90
16578;DHT22;8401;52.528;13.340;2024-01-27T08:04:24;5.70;99.90
16578;DHT22;8401;52.528;13.340;2024-01-27T08:06:51;5.70;99.90
16578;DHT22;8401;52.528;13.340;2024-01-27T08:09:17;5.80;99.90
16578;DHT22;8401;52.528;13.340;2024-01-27T08:11:43;5.80;99.90
16578;DHT22;8401;52.528;13.340;2024-01-27T08:14:09;5.80;99.90
16578;DHT22;8401;52.528;13.340;2024-01-27T08:16:35;5.80;99.90
16578;DHT22;8401;52.528;13.340;2024-01-27T08:19:01;5.80;99.90
16578;DHT22;8401;52.528;13.340;2024-01-27T08:21:26;5.80;99.90
16578;DHT22;8401;52.528;13.340;2024-01-27T08:23:53;5.90;99.90
16578;DHT22;8401;52.528;13.340;2024-01-27T08:26:18;5.90;99.90
16578;DHT22;8401;52.528;13.340;2024-01-27T08:28:46;5.90;99.90
16578;DHT22;8401;52.528;13.340;2024-01-27T08:31:12;5.90;99.90
16578;DHT22;8401;52.528;13.340;2024-01-27T08:33:38;5.90;99.90
16578;DHT22;8401;52.528;13.340;2024-01-27T08:36:04;6.00;99.90
16578;DHT22;8401;52.528;13.340;2024-01-27T08:38:29;6.00;99.90
16578;DHT22;8401;52.528;13.340;2024-01-27T08:40:55;5.90;99.90
16578;DHT22;8401;52.528;13.340;2024-01-27T08:43:20;6.00;99.90
16578;DHT22;8401;52.528;13.340;2024-01-27T08:45:46;6.00;99.90
16578;DHT22;8401;52.528;13.340;2024-01-27T08:48:12;6.00;99.90
16578;DHT22;8401;52.528;13.340;2024-01-27T08:50:38;6.10;99.90
16578;DHT22;8401;52.528;13.340;2024-01-27T08:53:03;6.10;99.90
16578;DHT22;8401;52.528;13.340;2024-01-27T08:55:29;6.00;99.90
16578;DHT22;8401;52.528;13.340;2024-01-27T08:57:56;6.00;99.90
16578;DHT22;8401;52.528;13.340;2024-01-27T09:00:22;6.10;99.90
16578;DHT22;8401;52.528;13.340;2024-01-27T09:02:47;6.20;99.90
16578;DHT22;8401;52.528;13.340;2024-01-27T09:05:13;6.30;99.90
16578;DHT22;8401;52.528;13.340;2024-01-27T09:07:39;6.40;99.90
16578;DHT22;8401;52.528;13.340;2024-01-27T09:10:05;6.30;99.90
16578;DHT22;8401;52.528;13.340;2024-01-27T09:12:31;6.40;99.90
16578;DHT22;8401;52.528;13.340;2024-01-27T09:14:56;6.30;99.90
16578;DHT22;8401;52.528;13.340;2024-01-27T09:17:22;6.40;99.90
16578;DHT22;8401;52.528;13.340;2024-01-27T09:19:47;6.40;99.90
16578;DHT22;8401;52.528;13.340;2024-01-27T09:22:13;6.40;99.90
16578;DHT22;8401;52.528;13.340;2024-01-27T09:24:40;6.30;99.90
16578;DHT22;8401;52.528;13.340;2024-01-27T09:27:06;6.40;99.90
16578;DHT22;8401;52.528;13.340;2024-01-27T09:29:32;6.40;99.90
16578;DHT22;8401;52.528;13.340;2024-01-27T09:31:58;6.40;99.90
16578;DHT22;8401;52.528;13.340;2024-01-27T09:34:23;6.40;99.90
16578;DHT22;8401;52.528;13.340;2024-01-27T09:36:49;6.40;99.90
16578;DHT22;8401;52.528;13.340;2024-01-27T09:39:15;6.40;99.90
16578;DHT22;8401;52.528;13.340;2024-01-27T09:41:41;6.50;99.90
16578;DHT22;8401;52.528;13.340;2024-01-27T09:44:07;6.50;99.90
16578;DHT22;8401;52.528;13.340;2024-01-27T09:46:33;6.40;99.90
16578;DHT22;8401;52.528;13.340;2024-01-27T09:48:59;6.40;99.90
16578;DHT22;8401;52.528;13.340;2024-01-27T09:51:25;6.50;99.90
16578;DHT22;8401;52.528;13.340;2024-01-27T09:53:51;6.50;99.90
16578;DHT22;8401;52.528;13.340;2024-01-27T09:56:17;6.50;99.90
16578;DHT22;8401;52.528;13.340;2024-01-27T09:58:45;6.60;99.90
16578;DHT22;8401;52.528;13.340;2024-01-27T10:01:12;6.60;99.90
16578;DHT22;8401;52.528;13.340;2024-01-27T10:03:41;6.60;99.90
16578;DHT22;8401;52.528;13.340;2024-01-27T10:06:10;6.60;99.90
16578;DHT22;8401;52.528;13.340;2024-01-27T10:08:36;6.70;99.90
16578;DHT22;8401;52.528;13.340;2024-01-27T10:11:09;6.70;99.90
16578;DHT22;8401;52.528;13.340;2024-01-27T10:13:39;6.80;99.90
16578;DHT22;8401;52.528;13.340;2024-01-27T10:16:06;6.80;99.90
16578;DHT22;8401;52.528;13.340;2024-01-27T10:18:33;6.80;99.90
16578;DHT22;8401;52.528;13.340;2024-01-27T10:20:59;6.70;99.90
16578;DHT22;8401;52.528;13.340;2024-01-27T10:23:25;6.80;99.90
16578;DHT22;8401;52.528;13.340;2024-01-27T10:25:51;6.80;99.90
16578;DHT22;8401;52.528;13.340;2024-01-27T10:28:17;6.80;99.90
16578;DHT22;8401;52.528;13.340;2024-01-27T10:30:46;7.00;99.90
16578;DHT22;8401;52.528;13.340;2024-01-27T10:33:14;6.90;99.90
16578;DHT22;8401;52.528;13.340;2024-01-27T10:35:40;7.00;99.90
16578;DHT22;8401;52.528;13.340;2024-01-27T10:38:06;6.90;99.90
16578;DHT22;8401;52.528;13.340;2024-01-27T10:40:32;6.90;99.90
16578;DHT22;8401;52.528;13.340;2024-01-27T10:43:07;6.80;99.90
16578;DHT22;8401;52.528;13.340;2024-01-27T10:45:35;6.80;99.90
16578;DHT22;8401;52.528;13.340;2024-01-27T10:48:03;6.90;99.90
16578;DHT22;8401;52.528;13.340;2024-01-27T10:50:29;6.80;99.90
16578;DHT22;8401;52.528;13.340;2024-01-27T10:52:57;6.80;99.90
16578;DHT22;8401;52.528;13.340;2024-01-27T10:55:24;6.60;99.90
16578;DHT22;8401;52.528;13.340;2024-01-27T10:57:52;6.60;99.90
16578;DHT22;8401;52.528;13.340;2024-01-27T11:00:18;6.60;99.90
16578;DHT22;8401;52.528;13.340;2024-01-27T11:02:44;6.70;99.90
16578;DHT22;8401;52.528;13.340;2024-01-27T11:05:11;6.80;99.90
16578;DHT22;8401;52.528;13.340;2024-01-27T11:07:40;6.70;99.90
16578;DHT22;8401;52.528;13.340;2024-01-27T11:10:07;6.70;99.90
16578;DHT22;8401;52.528;13.340;2024-01-27T11:12:34;6.70;99.90
16578;DHT22;8401;52.528;13.340;2024-01-27T11:14:59;6.70;99.90
16578;DHT22;8401;52.528;13.340;2024-01-27T11:17:25;6.90;99.90
16578;DHT22;8401;52.528;13.340;2024-01-27T11:19:51;6.90;99.90
16578;DHT22;8401;52.528;13.340;2024-01-27T11:22:27;6.90;99.90
16578;DHT22;8401;52.528;13.340;2024-01-27T11:25:05;7.00;99.90
16578;DHT22;8401;52.528;13.340;2024-01-27T11:27:31;7.10;99.90
16578;DHT22;8401;52.528;13.340;2024-01-27T11:29:57;6.90;99.90
16578;DHT22;8401;52.528;13.340;2024-01-27T11:32:23;6.90;99.90
16578;DHT22;8401;52.528;13.340;2024-01-27T11:34:49;6.90;99.90
16578;DHT22;8401;52.528;13.340;2024-01-27T11:37:15;6.90;99.90
16578;DHT22;8401;52.528;13.340;2024-01-27T11:39:42;6.90;99.90
16578;DHT22;8401;52.528;13.340;2024-01-27T11:42:12;6.90;99.90
16578;DHT22;8401;52.528;13.340;2024-01-27T11:44:39;6.90;99.90
16578;DHT22;8401;52.528;13.340;2024-01-27T11:47:05;7.00;99.90
16578;DHT22;8401;52.528;13.340;2024-01-27T11:49:33;6.90;99.90
16578;DHT22;8401;52.528;13.340;2024-01-27T11:51:58;6.90;99.90
16578;DHT22;8401;52.528;13.340;2024-01-27T11:54:24;7.00;99.90
16578;DHT22;8401;52.528;13.340;2024-01-27T11:56:50;6.90;99.90
16578;DHT22;8401;52.528;13.340;2024-01-27T11:59:16;6.80;99.90
16578;DHT22;8401;52.528;13.340;2024-01-27T12:01:41;6.70;99.90
16578;DHT22;8401;52.528;13.340;2024-01-27T12:04:08;6.90;99.90
16578;DHT22;8401;52.528;13.340;2024-01-27T12:06:34;6.90;99.90
16578;DHT22;8401;52.528;13.340;2024-01-27T12:09:00;6.90;99.90
16578;DHT22;8401;52.528;13.340;2024-01-27T12:11:26;6.90;99.90
16578;DHT22;8401;52.528;13.340;2024-01-27T12:13:52;6.90;99.90
16578;DHT22;8401;52.528;13.340;2024-01-27T12:16:19;6.90;99.90
16578;DHT22;8401;52.528;13.340;2024-01-27T12:18:45;7.00;99.90
16578;DHT22;8401;52.528;13.340;2024-01-27T12:21:11;7.00;99.90
16578;DHT22;8401;52.528;13.340;2024-01-27T12:23:50;6.90;99.90
16578;DHT22;8401;52.528;13.340;2024-01-27T12:26:16;6.70;99.90
16578;DHT22;8401;52.528;13.340;2024-01-27T12:28:45;6.80;99.90
16578;DHT22;8401;52.528;13.340;2024-01-27T12:31:11;6.90;99.90
16578;DHT22;8401;52.528;13.340;2024-01-27T12:33:36;6.80;99.90
16578;DHT22;8401;52.528;13.340;2024-01-27T12:36:02;6.80;99.90
16578;DHT22;8401;52.528;13.340;2024-01-27T12:38:28;6.90;99.90
16578;DHT22;8401;52.528;13.340;2024-01-27T12:40:54;6.90;99.90
16578;DHT22;8401;52.528;13.340;2024-01-27T12:43:19;7.00;99.90
16578;DHT22;8401;52.528;13.340;2024-01-27T12:45:45;7.20;99.90
16578;DHT22;8401;52.528;13.340;2024-01-27T12:48:10;7.40;99.90
16578;DHT22;8401;52.528;13.340;2024-01-27T12:50:36;7.20;99.90
16578;DHT22;8401;52.528;13.340;2024-01-27T12:53:01;7.20;99.90
16578;DHT22;8401;52.528;13.340;2024-01-27T12:55:27;7.20;99.90
16578;DHT22;8401;52.528;13.340;2024-01-27T12:57:53;7.20;99.90
16578;DHT22;8401;52.528;13.340;2024-01-27T13:00:19;7.20;99.90
16578;DHT22;8401;52.528;13.340;2024-01-27T13:02:45;7.00;99.90
16578;DHT22;8401;52.528;13.340;2024-01-27T13:05:10;6.90;99.90
16578;DHT22;8401;52.528;13.340;2024-01-27T13:07:36;6.90;99.90
16578;DHT22;8401;52.528;13.340;2024-01-27T13:10:02;7.10;99.90
16578;DHT22;8401;52.528;13.340;2024-01-27T13:12:27;7.10;99.90
16578;DHT22;8401;52.528;13.340;2024-01-27T13:14:53;7.20;99.90
16578;DHT22;8401;52.528;13.340;2024-01-27T13:17:20;7.50;99.90
16578;DHT22;8401;52.528;13.340;2024-01-27T13:19:46;7.30;99.90
16578;DHT22;8401;52.528;13.340;2024-01-27T13:22:12;7.10;99.90
16578;DHT22;8401;52.528;13.340;2024-01-27T13:24:38;7.00;99.90
16578;DHT22;8401;52.528;13.340;2024-01-27T13:27:04;7.00;99.90
16578;DHT22;8401;52.528;13.340;2024-01-27T13:29:30;7.10;99.90
16578;DHT22;8401;52.528;13.340;2024-01-27T13:31:58;7.10;99.90
16578;DHT22;8401;52.528;13.340;2024-01-27T13:34:27;7.10;99.90
16578;DHT22;8401;52.528;13.340;2024-01-27T13:36:54;7.10;99.90
16578;DHT22;8401;52.528;13.340;2024-01-27T13:39:19;7.00;99.90
16578;DHT22;8401;52.528;13.340;2024-01-27T13:41:45;7.00;99.90
16578;DHT22;8401;52.528;13.340;2024-01-27T13:44:10;7.00;99.90
16578;DHT22;8401;52.528;13.340;2024-01-27T13:46:36;7.00;99.90
16578;DHT22;8401;52.528;13.340;2024-01-27T13:49:02;6.90;99.90
16578;DHT22;8401;52.528;13.340;2024-01-27T13:51:27;7.00;99.90
16578;DHT22;8401;52.528;13.340;2024-01-27T13:53:53;7.10;99.90
16578;DHT22;8401;52.528;13.340;2024-01-27T13:56:18;7.10;99.90
16578;DHT22;8401;52.528;13.340;2024-01-27T13:58:45;7.20;99.90
16578;DHT22;8401;52.528;13.340;2024-01-27T14:01:12;7.20;99.90
16578;DHT22;8401;52.528;13.340;2024-01-27T14:03:38;7.20;99.90
16578;DHT22;8401;52.528;13.340;2024-01-27T14:06:04;7.30;99.90
16578;DHT22;8401;52.528;13.340;2024-01-27T14:08:30;7.40;99.90
16578;DHT22;8401;52.528;13.340;2024-01-27T14:10:56;7.50;99.90
16578;DHT22;8401;52.528;13.340;2024-01-27T14:13:21;7.60;99.90
16578;DHT22;8401;52.528;13.340;2024-01-27T14:15:47;7.60;99.90
16578;DHT22;8401;52.528;13.340;2024-01-27T14:18:13;7.60;99.90
16578;DHT22;8401;52.528;13.340;2024-01-27T14:20:46;7.60;99.90
16578;DHT22;8401;52.528;13.340;2024-01-27T14:23:12;7.60;99.90
16578;DHT22;8401;52.528;13.340;2024-01-27T14:25:37;7.60;99.90
16578;DHT22;8401;52.528;13.340;2024-01-27T14:28:03;7.50;99.90
16578;DHT22;8401;52.528;13.340;2024-01-27T14:30:32;7.50;99.90
16578;DHT22;8401;52.528;13.340;2024-01-27T14:32:58;7.40;99.90
16578;DHT22;8401;52.528;13.340;2024-01-27T14:35:24;7.40;99.90
16578;DHT22;8401;52.528;13.340;2024-01-27T14:37:52;7.50;99.90
16578;DHT22;8401;52.528;13.340;2024-01-27T14:40:19;7.60;99.90
16578;DHT22;8401;52.528;13.340;2024-01-27T14:42:46;7.60;99.90
16578;DHT22;8401;52.528;13.340;2024-01-27T14:45:12;7.70;99.90
16578;DHT22;8401;52.528;13.340;2024-01-27T14:47:38;7.60;99.90
16578;DHT22;8401;52.528;13.340;2024-01-27T14:50:04;7.60;99.90
16578;DHT22;8401;52.528;13.340;2024-01-27T14:52:31;7.50;99.90
16578;DHT22;8401;52.528;13.340;2024-01-27T14:54:57;7.50;99.90
16578;DHT22;8401;52.528;13.340;2024-01-27T14:57:23;7.50;99.90
16578;DHT22;8401;52.528;13.340;2024-01-27T14:59:49;7.50;99.90
16578;DHT22;8401;52.528;13.340;2024-01-27T15:02:15;7.50;99.90
16578;DHT22;8401;52.528;13.340;2024-01-27T15:04:41;7.50;99.90
16578;DHT22;8401;52.528;13.340;2024-01-27T15:07:07;7.40;99.90
16578;DHT22;8401;52.528;13.340;2024-01-27T15:09:35;7.40;99.90
16578;DHT22;8401;52.528;13.340;2024-01-27T15:12:00;7.50;99.90
16578;DHT22;8401;52.528;13.340;2024-01-27T15:14:26;7.40;99.90
16578;DHT22;8401;52.528;13.340;2024-01-27T15:16:52;7.30;99.90
16578;DHT22;8401;52.528;13.340;2024-01-27T15:19:18;7.30;99.90
16578;DHT22;8401;52.528;13.340;2024-01-27T15:21:44;7.30;99.90
16578;DHT22;8401;52.528;13.340;2024-01-27T15:24:11;7.20;99.90
16578;DHT22;8401;52.528;13.340;2024-01-27T15:26:36;7.20;99.90
16578;DHT22;8401;52.528;13.340;2024-01-27T15:29:02;7.20;99.90
16578;DHT22;8401;52.528;13.340;2024-01-27T15:31:28;7.20;99.90
16578;DHT22;8401;52.528;13.340;2024-01-27T15:33:54;7.20;99.90
16578;DHT22;8401;52.528;13.340;2024-01-27T15:36:19;7.10;99.90